Time;durP1;ratioP1;P1;durP2;ratioP2;P2;SDS_P1;SDS_P2;PMS_P1;PMS_P2;Temp;Humidity;BMP_temperature;BMP_pressure;BME280_temperature;BME280_humidity;BME280_pressure;Samples;Min_cycle;Max_cycle;Signal;HPM_P1;HPM_P2
2023/07/24 04:02:35;;;;;;;6.57;4.82;;;;;;;20.77;100.00;100049.44;6581032;26;19990;-86
2023/07/24 04:05:38;;;;;;;7.15;4.95;;;;;;;20.80;100.00;100040.75;6609560;27;33154;-86
2023/07/24 04:08:41;;;;;;;6.95;5.10;;;;;;;20.77;100.00;100042.06;6601305;27;34220;-86
2023/07/24 04:11:44;;;;;;;7.10;5.00;;;;;;;20.80;100.00;100040.75;6574578;27;34262;-87
2023/07/24 04:14:48;;;;;;;6.50;5.10;;;;;;;20.88;100.00;100043.00;6594553;27;36210;-83
2023/07/24 04:17:51;;;;;;;10.27;5.35;;;;;;;20.97;100.00;100032.44;6606861;27;33633;-83
2023/07/24 04:20:55;;;;;;;7.35;5.20;;;;;;;21.07;100.00;100038.06;6587288;27;33341;-84
2023/07/24 04:23:58;;;;;;;9.18;4.90;;;;;;;21.09;100.00;100038.62;6606618;27;33309;-84
2023/07/24 04:27:01;;;;;;;9.27;4.97;;;;;;;21.14;100.00;100040.59;6569406;27;33186;-83
2023/07/24 04:30:04;;;;;;;7.12;4.93;;;;;;;21.22;100.00;100031.94;6606814;27;34179;-84
2023/07/24 04:33:07;;;;;;;6.43;5.12;;;;;;;21.27;100.00;100040.22;6568872;27;33504;-84
2023/07/24 04:36:10;;;;;;;5.87;5.07;;;;;;;21.41;100.00;100033.28;6606578;27;33984;-84
2023/07/24 04:39:13;;;;;;;8.57;5.40;;;;;;;21.56;100.00;100032.59;6606753;27;33423;-84
2023/07/24 04:42:16;;;;;;;7.60;5.20;;;;;;;21.57;100.00;100036.16;6568968;27;33326;-83
2023/07/24 04:45:19;;;;;;;9.05;5.57;;;;;;;21.60;100.00;100033.72;6603193;27;34104;-83
2023/07/24 04:48:25;;;;;;;7.75;4.93;;;;;;;21.67;100.00;100028.84;6593125;27;34938;-84
2023/07/24 04:51:28;;;;;;;6.87;5.28;;;;;;;21.69;100.00;100031.34;6569043;27;33288;-84
2023/07/24 04:54:31;;;;;;;9.13;5.80;;;;;;;21.78;100.00;100037.19;6568965;27;33433;-84
2023/07/24 04:57:33;;;;;;;7.32;5.43;;;;;;;21.79;100.00;100036.09;6606742;27;33334;-84
2023/07/24 05:00:36;;;;;;;7.57;5.30;;;;;;;21.83;100.00;100040.78;6569430;27;33395;-84
2023/07/24 05:03:39;;;;;;;10.15;5.62;;;;;;;22.00;100.00;100042.59;6568611;27;33504;-84
2023/07/24 05:06:42;;;;;;;10.38;5.68;;;;;;;22.02;100.00;100049.44;6569015;27;33420;-84
2023/07/24 05:09:45;;;;;;;9.35;5.57;;;;;;;22.06;100.00;100047.03;6587112;27;34337;-84
2023/07/24 05:12:48;;;;;;;7.47;5.35;;;;;;;22.24;100.00;100045.81;6569244;27;33586;-84
2023/07/24 05:15:50;;;;;;;8.93;5.75;;;;;;;22.43;100.00;100044.28;6615172;27;34177;-84
2023/07/24 05:18:53;;;;;;;7.37;5.57;;;;;;;22.60;100.00;100046.87;6603268;27;34001;-84
2023/07/24 05:21:56;;;;;;;7.72;5.55;;;;;;;22.67;100.00;100038.38;6572727;27;33614;-84
2023/07/24 05:24:59;;;;;;;7.68;5.50;;;;;;;22.64;100.00;100046.09;6569913;27;33970;-84
2023/07/24 05:28:01;;;;;;;9.07;5.20;;;;;;;22.66;100.00;100045.81;6569800;27;33303;-84
2023/07/24 05:31:05;;;;;;;7.50;5.72;;;;;;;22.69;100.00;100050.75;6606129;27;33487;-84
2023/07/24 05:34:08;;;;;;;6.87;5.20;;;;;;;22.86;100.00;100045.09;6608863;27;33067;-84
2023/07/24 05:37:11;;;;;;;7.60;5.43;;;;;;;22.85;100.00;100049.75;6573066;27;33394;-84
2023/07/24 05:40:13;;;;;;;10.43;6.03;;;;;;;23.04;100.00;100043.81;6611768;27;33463;-84
2023/07/24 05:43:16;;;;;;;8.35;5.70;;;;;;;23.25;100.00;100042.81;6590111;27;34337;-84
2023/07/24 05:46:19;;;;;;;8.98;5.12;;;;;;;23.29;100.00;100043.09;6575435;27;34659;-84
2023/07/24 05:49:22;;;;;;;8.82;5.12;;;;;;;23.31;100.00;100036.25;6606855;27;34079;-85
2023/07/24 05:52:25;;;;;;;7.25;5.75;;;;;;;23.41;100.00;100035.44;6586410;27;33895;-84
2023/07/24 05:55:27;;;;;;;10.02;6.10;;;;;;;23.53;100.00;100037.94;6605898;27;34060;-84
2023/07/24 05:58:30;;;;;;;11.93;6.07;;;;;;;23.68;100.00;100032.44;6551035;27;33484;-84
2023/07/24 06:01:33;;;;;;;7.05;5.28;;;;;;;23.77;100.00;100032.75;6568707;27;33592;-84
2023/07/24 06:04:36;;;;;;;9.90;5.85;;;;;;;23.94;100.00;100027.00;6588031;27;33500;-84
2023/07/24 06:07:39;;;;;;;9.32;5.62;;;;;;;24.03;100.00;100030.03;6586998;27;33405;-83
2023/07/24 06:10:42;;;;;;;7.82;5.80;;;;;;;23.96;100.00;100027.56;6586683;27;34168;-84
2023/07/24 06:13:45;;;;;;;10.70;5.85;;;;;;;23.97;100.00;100015.44;6569048;27;33471;-83
2023/07/24 06:16:48;;;;;;;9.48;5.90;;;;;;;24.09;100.00;100021.50;6592272;27;157971;-84
2023/07/24 06:19:50;;;;;;;7.05;5.57;;;;;;;24.29;100.00;100022.56;6604925;27;34945;-84
2023/07/24 06:22:53;;;;;;;7.28;5.30;;;;;;;24.42;100.00;100010.97;6582117;27;34888;-86
2023/07/24 06:25:56;;;;;;;8.07;5.32;;;;;;;24.57;100.00;100024.75;6587259;27;33610;-86
2023/07/24 06:28:59;;;;;;;7.65;5.28;;;;;;;24.65;100.00;100020.59;6569076;27;34416;-86
2023/07/24 06:32:02;;;;;;;9.02;5.22;;;;;;;24.78;100.00;100025.50;6585996;27;33606;-90
2023/07/24 06:35:06;;;;;;;9.75;6.12;;;;;;;24.97;100.00;100030.37;6586092;27;33460;-90
2023/07/24 06:38:09;;;;;;;8.27;5.70;;;;;;;24.82;100.00;100017.50;6606585;27;33623;-90
2023/07/24 06:41:12;;;;;;;7.57;5.55;;;;;;;24.86;100.00;100024.94;6586816;27;34251;-91
2023/07/24 06:44:15;;;;;;;11.15;5.85;;;;;;;25.11;100.00;100017.66;6586995;27;34162;-86
2023/07/24 06:47:17;;;;;;;9.07;5.57;;;;;;;25.10;100.00;100016.03;6569418;27;32340;-86
2023/07/24 06:50:20;;;;;;;9.02;5.85;;;;;;;25.15;100.00;100017.94;6570522;27;33255;-86
2023/07/24 06:53:23;;;;;;;8.68;5.93;;;;;;;25.27;100.00;100021.16;6606254;27;33628;-86
2023/07/24 06:56:26;;;;;;;8.10;5.43;;;;;;;25.27;100.00;100016.50;6586762;27;33567;-86
2023/07/24 06:59:29;;;;;;;9.48;5.62;;;;;;;25.39;100.00;100013.41;6618350;27;33581;-86
2023/07/24 07:02:32;;;;;;;10.70;6.32;;;;;;;25.42;100.00;100018.34;6588505;27;33687;-86
2023/07/24 07:05:35;;;;;;;9.85;5.87;;;;;;;25.29;100.00;100017.03;6585730;27;33469;-87
2023/07/24 07:08:38;;;;;;;7.62;5.20;;;;;;;25.41;100.00;100019.44;6567036;27;33488;-87
2023/07/24 07:11:43;;;;;;;7.15;5.18;;;;;;;25.60;100.00;100005.81;6604762;27;34023;-87
2023/07/24 07:14:45;;;;;;;6.15;4.93;;;;;;;25.85;100.00;100012.25;6605391;27;33947;-87
2023/07/24 07:17:48;;;;;;;10.73;5.85;;;;;;;26.14;98.16;99998.50;6567824;27;33064;-87
2023/07/24 07:20:53;;;;;;;9.73;6.30;;;;;;;26.19;96.47;99998.44;6605408;27;34388;-87
2023/07/24 07:23:56;;;;;;;7.50;5.18;;;;;;;25.97;98.54;99991.50;6605538;27;34111;-88
2023/07/24 07:26:58;;;;;;;7.82;5.65;;;;;;;26.11;97.63;99985.28;6586033;27;34726;-87
2023/07/24 07:30:01;;;;;;;7.85;4.87;;;;;;;26.27;96.46;99989.53;6590535;27;33419;-87
2023/07/24 07:33:05;;;;;;;7.10;5.25;;;;;;;26.53;96.60;99978.22;6612260;27;33460;-87
2023/07/24 07:36:08;;;;;;;10.55;5.40;;;;;;;26.67;95.10;99973.66;6589366;27;33071;-87
2023/07/24 07:39:11;;;;;;;10.25;5.55;;;;;;;26.75;94.14;99967.47;6573509;27;33269;-88
2023/07/24 07:42:14;;;;;;;7.60;5.10;;;;;;;26.71;95.13;99971.97;6590605;27;33459;-88
2023/07/24 07:45:21;;;;;;;8.32;5.15;;;;;;;27.02;93.29;99966.84;6589979;27;33525;-88
2023/07/24 07:48:24;;;;;;;7.55;5.10;;;;;;;27.31;90.22;99974.19;6606783;27;34324;-87
2023/07/24 07:51:27;;;;;;;8.05;5.47;;;;;;;27.40;90.47;99966.06;6568993;27;34254;-88
2023/07/24 07:54:30;;;;;;;8.88;5.53;;;;;;;27.41;90.88;99959.41;6568921;27;33385;-87
2023/07/24 07:57:37;;;;;;;8.40;5.47;;;;;;;27.48;91.02;99962.63;6569410;27;33434;-88
2023/07/24 08:00:40;;;;;;;8.98;5.20;;;;;;;27.71;89.98;99966.41;6587378;27;34157;-88
2023/07/24 08:03:43;;;;;;;7.95;4.80;;;;;;;27.72;89.15;99973.56;6586454;27;33376;-88
2023/07/24 08:06:48;;;;;;;9.32;5.18;;;;;;;28.00;87.84;99966.19;6610660;26;34713;-88
2023/07/24 08:09:51;;;;;;;9.30;5.15;;;;;;;28.35;86.99;99961.13;6622327;27;33750;-87
2023/07/24 08:12:54;;;;;;;8.18;5.28;;;;;;;28.52;82.70;99958.59;6591378;27;34359;-87
2023/07/24 08:15:57;;;;;;;11.90;4.93;;;;;;;28.62;82.82;99960.34;6568649;27;33464;-88
2023/07/24 08:18:59;;;;;;;8.88;5.32;;;;;;;28.89;81.28;99951.97;6568125;27;34122;-88
2023/07/24 08:22:05;;;;;;;10.70;5.18;;;;;;;29.02;79.62;99952.28;6568182;27;34878;-87
2023/07/24 08:25:08;;;;;;;8.95;4.70;;;;;;;29.20;77.93;99945.78;6586015;27;34136;-87
2023/07/24 08:28:11;;;;;;;7.20;5.25;;;;;;;29.21;77.59;99947.44;6585676;27;32917;-88
2023/07/24 08:31:13;;;;;;;7.03;5.10;;;;;;;29.11;79.51;99939.34;6586858;27;33141;-88
2023/07/24 08:34:16;;;;;;;8.95;5.78;;;;;;;29.31;75.73;99955.53;6586970;27;34309;-87
2023/07/24 08:37:19;;;;;;;9.13;5.12;;;;;;;29.39;76.00;99949.19;6587007;27;34001;-87
2023/07/24 08:40:22;;;;;;;8.07;4.68;;;;;;;29.28;76.46;99946.97;6569231;27;33551;-87
2023/07/24 08:43:25;;;;;;;7.37;4.90;;;;;;;29.39;73.28;99948.37;6568619;27;33377;-87
2023/07/24 08:46:29;;;;;;;6.85;4.90;;;;;;;29.57;75.46;99947.41;6604667;27;33287;-87
2023/07/24 08:49:34;;;;;;;10.50;5.10;;;;;;;29.63;75.05;99947.28;6605582;27;34365;-91
2023/07/24 08:52:42;;;;;;;9.90;5.22;;;;;;;29.75;72.84;99942.00;6587679;27;34281;-90
2023/07/24 08:55:48;;;;;;;8.77;5.10;;;;;;;29.82;69.86;99934.03;6606464;27;34426;-89
2023/07/24 08:58:51;;;;;;;10.10;5.32;;;;;;;29.76;71.66;99932.53;6606387;27;33442;-88
2023/07/24 09:01:54;;;;;;;10.48;5.25;;;;;;;29.90;69.45;99929.69;6568322;27;34567;-88
2023/07/24 09:04:58;;;;;;;10.45;5.12;;;;;;;30.05;68.39;99924.53;6548460;27;33683;-88
2023/07/24 09:08:00;;;;;;;8.45;4.97;;;;;;;30.04;68.10;99920.13;6587697;26;33754;-88
2023/07/24 09:11:05;;;;;;;8.63;5.22;;;;;;;30.42;66.54;99922.44;6567266;27;34536;-87
2023/07/24 09:14:09;;;;;;;6.70;4.75;;;;;;;30.43;67.02;99903.81;6585975;27;34422;-87
2023/07/24 09:17:24;;;;;;;8.20;5.20;;;;;;;30.18;65.66;99910.84;6573399;27;32934;-88
2023/07/24 09:20:38;;;;;;;8.13;4.90;;;;;;;30.24;64.96;99909.59;6620002;27;33438;-88
2023/07/24 09:23:43;;;;;;;7.53;5.07;;;;;;;30.45;63.72;99907.06;6621062;26;33796;-88
2023/07/24 09:26:49;;;;;;;9.60;5.32;;;;;;;30.52;63.82;99898.28;6585614;27;33335;-88
2023/07/24 09:29:52;;;;;;;8.40;4.80;;;;;;;30.72;60.92;99903.22;6609404;27;32924;-89
2023/07/24 09:32:55;;;;;;;7.57;4.60;;;;;;;30.61;59.59;99899.91;6610241;27;33218;-87
2023/07/24 09:36:01;;;;;;;8.38;4.85;;;;;;;30.81;58.56;99906.03;6610507;27;33352;-88
2023/07/24 09:39:06;;;;;;;9.40;5.20;;;;;;;30.96;56.62;99897.22;6612201;27;33695;-88
2023/07/24 09:42:09;;;;;;;9.32;5.25;;;;;;;31.25;56.40;99893.78;6591090;27;32965;-89
2023/07/24 09:45:11;;;;;;;10.25;5.37;;;;;;;31.51;55.06;99890.19;6586188;27;34171;-87
2023/07/24 09:48:16;;;;;;;10.25;5.47;;;;;;;31.61;54.92;99876.72;6606223;27;33066;-87
2023/07/24 09:51:39;;;;;;;10.60;5.43;;;;;;;31.78;54.33;99875.88;6574575;27;34119;-88
2023/07/24 09:55:09;;;;;;;10.43;5.70;;;;;;;31.81;52.94;99864.06;6586414;27;33501;-87
2023/07/24 09:58:15;;;;;;;11.27;5.05;;;;;;;31.90;54.19;99861.28;6620387;27;33528;-88
2023/07/24 10:01:18;;;;;;;10.65;5.70;;;;;;;32.10;53.61;99854.16;6604498;27;34509;-92
2023/07/24 10:04:24;;;;;;;12.30;5.25;;;;;;;32.44;52.19;99861.53;6586022;27;33340;-89
2023/07/24 10:07:27;;;;;;;9.13;5.10;;;;;;;32.40;49.58;99854.97;6587453;27;33251;-90
2023/07/24 10:10:32;;;;;;;9.93;5.43;;;;;;;32.52;48.03;99852.28;6586521;27;34179;-85
2023/07/24 10:13:36;;;;;;;11.02;5.57;;;;;;;32.78;47.57;99853.28;6587989;27;33442;-86
2023/07/24 10:16:40;;;;;;;30.83;9.60;;;;;;;33.05;46.21;99838.78;6589653;27;33543;-86
2023/07/24 10:19:43;;;;;;;11.15;6.00;;;;;;;33.31;45.33;99834.94;6606502;27;34080;-86
2023/07/24 10:22:46;;;;;;;10.68;5.32;;;;;;;33.68;45.49;99826.69;6586370;27;34475;-85
2023/07/24 10:25:50;;;;;;;11.38;5.80;;;;;;;33.71;41.49;99831.59;6586420;27;33637;-85
2023/07/24 10:28:54;;;;;;;9.15;5.40;;;;;;;33.70;40.62;99828.00;6605740;27;33954;-84
2023/07/24 10:31:56;;;;;;;12.13;5.68;;;;;;;33.84;39.36;99819.25;6606399;27;34157;-84
2023/07/24 10:35:10;;;;;;;10.40;5.60;;;;;;;34.00;40.13;99811.03;6587673;27;34454;-86
2023/07/24 10:38:15;;;;;;;11.57;6.00;;;;;;;34.18;37.72;99808.81;6605947;27;33648;-86
2023/07/24 10:41:18;;;;;;;13.30;5.78;;;;;;;34.37;37.23;99802.63;6586694;27;34318;-85
2023/07/24 10:44:31;;;;;;;13.35;5.72;;;;;;;34.36;37.72;99795.41;6585474;27;32932;-86
2023/07/24 10:47:34;;;;;;;11.50;5.70;;;;;;;34.49;38.12;99799.81;6585418;27;34236;-85
2023/07/24 10:50:38;;;;;;;13.52;6.03;;;;;;;34.89;38.30;99793.41;6587623;27;34213;-86
2023/07/24 10:53:45;;;;;;;12.13;5.43;;;;;;;35.38;36.13;99794.00;6581843;27;33497;-84
2023/07/24 10:56:47;;;;;;;11.88;5.85;;;;;;;35.11;35.89;99781.69;6613817;27;33772;-86
2023/07/24 10:59:53;;;;;;;9.98;5.65;;;;;;;35.29;35.21;99786.97;6606581;27;33500;-85
2023/07/24 11:02:56;;;;;;;12.95;6.40;;;;;;;35.35;34.87;99786.34;6606662;27;33481;-84
2023/07/24 11:05:59;;;;;;;11.10;5.82;;;;;;;35.60;33.56;99772.19;6568788;27;34390;-85
2023/07/24 11:09:02;;;;;;;9.98;5.65;;;;;;;36.04;33.03;99766.50;6606279;27;33295;-86
2023/07/24 11:12:16;;;;;;;11.70;5.95;;;;;;;36.46;32.16;99769.44;6606244;26;34364;-86
2023/07/24 11:15:25;;;;;;;12.23;5.20;;;;;;;36.37;31.53;99757.66;6609127;27;34461;-85
2023/07/24 11:18:30;;;;;;;11.60;5.93;;;;;;;36.27;31.62;99749.78;6595873;27;33451;-85
2023/07/24 11:21:52;;;;;;;10.43;6.15;;;;;;;37.15;30.88;99738.84;6613873;27;33533;-86
2023/07/24 11:24:57;;;;;;;9.45;5.70;;;;;;;37.63;30.21;99735.69;6590280;27;33778;-86
2023/07/24 11:27:59;;;;;;;8.55;4.75;;;;;;;36.98;30.08;99733.69;6613502;27;34040;-90
2023/07/24 11:31:02;;;;;;;10.00;5.32;;;;;;;36.53;31.45;99727.56;6612735;27;33414;-89
2023/07/24 11:34:06;;;;;;;9.40;5.00;;;;;;;35.90;33.05;99718.53;6596031;27;33600;-89
2023/07/24 11:37:09;;;;;;;9.70;5.43;;;;;;;37.42;31.92;99719.25;6574948;27;33069;-86
2023/07/24 11:40:14;;;;;;;10.45;5.53;;;;;;;39.29;29.79;99711.34;6593474;27;34439;-85
2023/07/24 11:43:20;;;;;;;11.45;5.45;;;;;;;40.78;26.72;99702.25;6572664;27;33445;-86
2023/07/24 11:46:24;;;;;;;6.90;4.90;;;;;;;41.55;26.11;99685.00;6611004;27;34806;-83
2023/07/24 11:49:30;;;;;;;8.25;4.70;;;;;;;42.38;23.83;99685.62;6598049;27;33153;-85
2023/07/24 11:52:48;;;;;;;8.27;4.60;;;;;;;42.50;24.06;99668.97;6609266;27;33655;-84
2023/07/24 11:55:52;;;;;;;10.10;4.50;;;;;;;43.44;23.17;99660.66;6607998;27;33836;-84
2023/07/24 11:58:55;;;;;;;9.77;5.03;;;;;;;44.05;23.00;99651.56;6608069;27;34346;-84
2023/07/24 12:01:58;;;;;;;8.10;4.50;;;;;;;44.43;21.92;99657.19;6580501;27;33342;-83
2023/07/24 12:05:01;;;;;;;8.98;4.60;;;;;;;44.65;20.90;99658.50;6579604;27;33279;-84
2023/07/24 12:08:04;;;;;;;8.02;4.82;;;;;;;43.80;21.17;99641.28;6580080;27;33550;-84
2023/07/24 12:11:17;;;;;;;5.90;4.53;;;;;;;43.81;21.97;99637.22;6581197;27;33259;-85
2023/07/24 12:14:20;;;;;;;6.43;4.68;;;;;;;45.03;19.59;99630.75;6580049;27;33025;-84
2023/07/24 12:17:23;;;;;;;6.45;4.50;;;;;;;44.74;20.30;99638.13;6578775;27;33072;-84
2023/07/24 12:20:25;;;;;;;8.48;4.70;;;;;;;45.62;19.65;99620.00;6581690;27;33167;-84
2023/07/24 12:23:29;;;;;;;7.40;4.37;;;;;;;45.35;20.13;99634.28;6589096;27;33723;-84
2023/07/24 12:26:31;;;;;;;8.38;4.65;;;;;;;45.07;20.71;99621.34;6596381;27;34530;-83
2023/07/24 12:29:35;;;;;;;8.10;4.65;;;;;;;45.31;20.38;99625.00;6581139;27;34898;-83
2023/07/24 12:32:38;;;;;;;6.65;4.60;;;;;;;44.26;20.96;99608.75;6565198;27;33434;-85
2023/07/24 12:35:41;;;;;;;9.27;5.28;;;;;;;44.26;21.25;99608.75;6566353;27;33689;-86
2023/07/24 12:38:44;;;;;;;8.27;4.65;;;;;;;43.93;21.78;99604.66;6580896;27;34035;-86
2023/07/24 12:41:49;;;;;;;8.18;4.68;;;;;;;44.41;21.34;99608.56;6581448;27;33338;-86
2023/07/24 12:44:52;;;;;;;8.38;4.60;;;;;;;43.51;22.05;99586.09;6581004;27;33474;-86
2023/07/24 12:47:56;;;;;;;7.55;4.80;;;;;;;44.19;21.04;99585.31;6582244;27;33307;-86
2023/07/24 12:51:00;;;;;;;7.68;4.35;;;;;;;44.62;20.50;99581.87;6543956;27;33464;-87
2023/07/24 12:54:04;;;;;;;7.78;4.68;;;;;;;45.06;21.49;99572.25;6582272;27;33827;-86
2023/07/24 12:57:26;;;;;;;8.38;4.22;;;;;;;46.17;19.89;99572.97;6571491;27;33287;-86
2023/07/24 13:00:30;;;;;;;10.00;4.87;;;;;;;46.19;18.95;99563.97;6597639;27;34579;-86
2023/07/24 13:03:33;;;;;;;8.38;4.45;;;;;;;44.81;20.36;99566.97;6585629;27;34926;-86
2023/07/24 13:06:36;;;;;;;8.15;4.07;;;;;;;45.58;20.40;99545.34;6580226;27;33387;-90
2023/07/24 13:09:39;;;;;;;7.40;3.85;;;;;;;46.70;19.50;99551.00;6581547;27;33794;-89
2023/07/24 13:12:42;;;;;;;7.78;4.05;;;;;;;47.34;19.10;99542.03;6579198;27;33068;-90
2023/07/24 13:15:44;;;;;;;6.72;3.90;;;;;;;48.46;18.14;99546.84;6562241;27;33527;-90
2023/07/24 13:18:48;;;;;;;6.65;3.95;;;;;;;47.59;17.97;99527.06;6580262;27;33144;-88
2023/07/24 13:21:52;;;;;;;8.75;4.22;;;;;;;46.65;19.12;99531.59;6584369;27;34380;-87
2023/07/24 13:24:55;;;;;;;7.03;4.40;;;;;;;46.53;19.47;99523.72;6579490;27;33309;-87
2023/07/24 13:27:57;;;;;;;7.15;4.37;;;;;;;46.86;19.03;99526.59;6585144;27;33122;-87
2023/07/24 13:31:11;;;;;;;7.87;4.30;;;;;;;46.80;18.87;99524.28;6582338;27;33705;-86
2023/07/24 13:34:17;;;;;;;8.52;4.82;;;;;;;45.92;19.68;99508.06;6588542;27;33632;-86
2023/07/24 13:37:21;;;;;;;7.50;4.50;;;;;;;46.20;19.90;99500.13;6583330;27;34249;-86
2023/07/24 13:40:24;;;;;;;7.32;4.90;;;;;;;46.56;19.89;99500.84;6591019;27;34562;-87
2023/07/24 13:43:28;;;;;;;7.70;4.40;;;;;;;46.64;19.62;99483.59;6586627;27;33137;-86
2023/07/24 13:46:31;;;;;;;6.80;4.97;;;;;;;46.27;20.35;99491.41;6582804;27;33290;-86
2023/07/24 13:49:34;;;;;;;8.38;4.80;;;;;;;46.23;19.55;99487.84;6561461;27;33904;-87
2023/07/24 13:52:37;;;;;;;9.18;5.53;;;;;;;45.26;20.62;99492.75;6580668;27;33054;-87
2023/07/24 13:55:40;;;;;;;11.70;5.50;;;;;;;45.14;21.12;99482.03;6561434;27;34794;-87
2023/07/24 13:58:43;;;;;;;9.75;6.03;;;;;;;44.97;20.34;99472.56;6581680;27;33892;-87
2023/07/24 14:01:46;;;;;;;10.13;5.72;;;;;;;44.96;20.36;99476.63;6581691;27;33652;-86
2023/07/24 14:04:53;;;;;;;11.20;5.78;;;;;;;44.54;20.81;99468.41;6568587;27;34152;-86
2023/07/24 14:07:56;;;;;;;11.07;6.20;;;;;;;42.14;23.65;99468.28;6578132;27;33908;-86
2023/07/24 14:10:59;;;;;;;10.60;5.75;;;;;;;39.05;27.26;99457.31;6561231;27;33544;-86
2023/07/24 14:14:01;;;;;;;10.27;5.97;;;;;;;38.00;29.34;99454.81;6579417;27;33932;-86
2023/07/24 14:17:05;;;;;;;12.68;6.78;;;;;;;36.99;30.37;99452.66;6581554;27;34959;-85
2023/07/24 14:20:08;;;;;;;12.70;6.35;;;;;;;36.45;31.04;99431.38;6581950;27;33153;-86
2023/07/24 14:23:11;;;;;;;14.07;6.50;;;;;;;36.17;31.29;99428.87;6581762;27;33456;-87
2023/07/24 14:26:14;;;;;;;10.85;6.32;;;;;;;35.98;32.34;99426.09;6580922;27;33348;-87
2023/07/24 14:29:17;;;;;;;13.77;7.03;;;;;;;35.71;32.02;99417.59;6579940;27;32933;-86
2023/07/24 14:32:20;;;;;;;13.02;7.25;;;;;;;35.74;32.23;99411.25;6579038;27;34723;-86
2023/07/24 14:35:23;;;;;;;20.05;7.35;;;;;;;35.76;31.85;99400.50;6578669;27;33310;-86
2023/07/24 14:38:26;;;;;;;12.63;6.55;;;;;;;35.50;32.74;99401.16;6580454;27;34175;-86
2023/07/24 14:41:29;;;;;;;14.43;6.32;;;;;;;35.85;32.17;99392.66;6560569;27;34625;-86
2023/07/24 14:44:32;;;;;;;14.10;6.07;;;;;;;36.01;31.59;99386.13;6579292;27;32098;-86
2023/07/24 14:47:35;;;;;;;12.23;5.82;;;;;;;35.95;31.87;99379.22;6581599;27;33101;-86
2023/07/24 14:50:39;;;;;;;12.35;6.70;;;;;;;35.70;31.80;99379.59;6579383;27;33564;-86
2023/07/24 14:53:41;;;;;;;12.80;6.82;;;;;;;35.51;32.06;99369.22;6579732;27;33466;-86
2023/07/24 14:56:44;;;;;;;13.13;6.90;;;;;;;35.34;31.94;99356.47;6579603;27;33540;-86
2023/07/24 15:00:04;;;;;;;13.95;6.75;;;;;;;34.97;32.74;99356.88;6563282;27;33797;-86
2023/07/24 15:03:06;;;;;;;13.20;6.55;;;;;;;34.42;32.16;99350.41;6579707;27;33559;-86
2023/07/24 15:06:09;;;;;;;11.00;5.97;;;;;;;34.53;32.65;99348.69;6579680;27;33430;-89
2023/07/24 15:09:12;;;;;;;12.25;6.40;;;;;;;34.57;31.55;99347.97;6561709;27;33351;-87
2023/07/24 15:12:15;;;;;;;15.80;6.72;;;;;;;34.45;32.83;99358.06;6564302;27;33247;-87
2023/07/24 15:15:18;;;;;;;12.23;6.35;;;;;;;34.43;32.28;99354.00;6582550;27;33000;-87
2023/07/24 15:18:21;;;;;;;14.13;6.15;;;;;;;34.32;32.51;99362.16;6578666;27;34184;-87
2023/07/24 15:21:25;;;;;;;13.82;6.62;;;;;;;33.76;33.62;99357.53;6579442;27;34231;-87
2023/07/24 15:24:28;;;;;;;15.98;6.65;;;;;;;33.67;34.48;99337.34;6582715;27;33371;-87
2023/07/24 15:27:31;;;;;;;12.40;6.20;;;;;;;33.72;33.82;99330.66;6584727;27;33632;-87
2023/07/24 15:30:34;;;;;;;12.68;6.37;;;;;;;33.91;33.80;99335.56;6571038;27;33236;-87
2023/07/24 15:33:36;;;;;;;14.18;6.35;;;;;;;34.17;33.52;99338.66;6598370;26;34095;-87
2023/07/24 15:36:39;;;;;;;16.48;5.82;;;;;;;34.27;33.36;99332.50;6570519;27;34947;-87
2023/07/24 15:39:42;;;;;;;15.73;6.40;;;;;;;34.20;33.39;99331.53;6587794;27;33496;-87
2023/07/24 15:42:46;;;;;;;13.85;6.70;;;;;;;33.67;34.17;99316.97;6579712;27;34428;-87
2023/07/24 15:45:49;;;;;;;10.38;6.37;;;;;;;33.59;33.85;99314.00;6578212;27;34087;-87
2023/07/24 15:48:52;;;;;;;12.00;6.37;;;;;;;33.58;34.04;99326.34;6584541;27;33152;-87
2023/07/24 15:51:55;;;;;;;12.10;6.20;;;;;;;33.40;33.86;99322.22;6564461;27;33802;-87
2023/07/24 15:54:59;;;;;;;10.63;6.03;;;;;;;33.26;33.70;99333.81;6579566;27;33350;-87
